createdAt,value
2019-04-05T00:00:23.128Z,12.13
2019-04-05T00:02:52.527Z,14.00
2019-04-05T00:05:21.874Z,13.15
2019-04-05T00:07:51.200Z,13.20
2019-04-05T00:10:21.517Z,13.60
2019-04-05T00:12:50.843Z,13.55
2019-04-05T00:15:20.191Z,13.58
2019-04-05T00:17:49.517Z,14.55
2019-04-05T00:20:18.858Z,13.98
2019-04-05T00:22:48.191Z,14.90
2019-04-05T00:25:17.535Z,14.75
2019-04-05T00:27:47.987Z,15.98
2019-04-05T00:30:17.570Z,15.20
2019-04-05T00:32:46.909Z,15.23
2019-04-05T00:35:16.324Z,16.07
2019-04-05T00:37:45.651Z,16.32
2019-04-05T00:40:15.130Z,15.88
2019-04-05T00:42:44.453Z,16.37
2019-04-05T00:45:14.039Z,16.30
2019-04-05T00:47:43.367Z,14.25
2019-04-05T00:50:13.345Z,14.73
2019-04-05T00:52:42.740Z,15.23
2019-04-05T00:55:12.222Z,13.95
2019-04-05T00:57:41.623Z,16.00
2019-04-05T01:00:11.408Z,16.25
2019-04-05T01:02:40.732Z,15.88
2019-04-05T01:05:10.311Z,17.17
2019-04-05T01:07:39.709Z,17.17
2019-04-05T01:10:09.591Z,16.25
2019-04-05T01:12:40.359Z,17.35
2019-04-05T01:15:11.738Z,17.55
2019-04-05T01:17:41.071Z,17.60
2019-04-05T01:20:13.237Z,16.48
2019-04-05T01:22:44.363Z,16.60
2019-04-05T01:25:14.249Z,17.98
2019-04-05T01:27:43.716Z,16.40
2019-04-05T01:30:14.797Z,17.05
2019-04-05T01:32:44.193Z,15.43
2019-04-05T01:35:13.611Z,16.65
2019-04-05T01:37:43.483Z,16.05
2019-04-05T01:40:13.159Z,16.62
2019-04-05T01:42:43.124Z,16.20
2019-04-05T01:45:12.898Z,14.47
2019-04-05T01:47:42.299Z,15.93
2019-04-05T01:50:11.779Z,15.60
2019-04-05T01:52:42.656Z,17.50
2019-04-05T01:55:12.269Z,18.07
2019-04-05T01:57:41.658Z,17.60
2019-04-05T02:00:12.477Z,17.02
2019-04-05T02:02:42.293Z,17.80
2019-04-05T02:05:23.511Z,18.07
2019-04-05T02:07:52.970Z,18.05
2019-04-05T02:10:22.447Z,17.12
2019-04-05T02:12:51.853Z,17.30
2019-04-05T02:15:26.504Z,17.40
2019-04-05T02:17:56.378Z,16.95
2019-04-05T02:20:26.365Z,15.85
2019-04-05T02:22:56.063Z,16.15
2019-04-05T02:25:25.574Z,16.70
2019-04-05T02:27:55.030Z,16.90
2019-04-05T02:30:24.562Z,16.30
2019-04-05T02:32:54.034Z,16.52
2019-04-05T02:35:23.622Z,16.45
2019-04-05T02:37:53.062Z,17.45
2019-04-05T02:40:25.753Z,18.25
2019-04-05T02:42:57.486Z,17.82
2019-04-05T02:45:29.948Z,18.00
2019-04-05T02:48:02.369Z,18.30
2019-04-05T02:50:33.337Z,18.45
2019-04-05T02:53:05.964Z,18.27
2019-04-05T02:55:36.199Z,18.20
2019-04-05T02:58:06.691Z,18.07
2019-04-05T03:00:36.157Z,19.12
2019-04-05T03:03:06.638Z,19.23
2019-04-05T03:05:37.674Z,19.52
2019-04-05T03:08:08.121Z,18.23
2019-04-05T03:10:58.441Z,19.00
2019-04-05T03:13:30.328Z,18.30
2019-04-05T03:16:02.821Z,17.02
2019-04-05T03:18:35.323Z,18.57
2019-04-05T03:21:08.717Z,18.98
2019-04-05T03:23:41.141Z,18.98
2019-04-05T03:26:13.562Z,17.62
2019-04-05T03:28:45.167Z,18.60
2019-04-05T03:31:14.755Z,18.52
2019-04-05T03:33:44.936Z,19.45
2019-04-05T03:36:14.436Z,19.90
2019-04-05T03:38:44.119Z,21.37
2019-04-05T03:41:13.786Z,19.75
2019-04-05T03:43:45.539Z,20.90
2019-04-05T03:46:15.028Z,21.70
2019-04-05T03:48:44.383Z,20.15
2019-04-05T03:51:13.779Z,19.02
2019-04-05T03:53:43.356Z,17.73
2019-04-05T03:56:12.934Z,19.73
2019-04-05T03:58:42.346Z,18.98
2019-04-05T04:01:11.743Z,20.57
2019-04-05T04:03:41.087Z,19.85
2019-04-05T04:06:10.783Z,19.30
2019-04-05T04:08:40.668Z,18.77
2019-04-05T04:11:10.537Z,18.52
2019-04-05T04:13:40.020Z,20.52
2019-04-05T04:16:09.615Z,20.72
2019-04-05T04:18:39.037Z,18.55
2019-04-05T04:21:24.671Z,20.25
2019-04-05T04:23:54.591Z,18.75
2019-04-05T04:26:24.227Z,17.55
2019-04-05T04:28:53.808Z,18.42
2019-04-05T04:31:23.206Z,18.60
2019-04-05T04:33:53.781Z,19.67
2019-04-05T04:36:23.175Z,20.80
2019-04-05T04:38:52.718Z,22.42
2019-04-05T04:41:22.514Z,21.55
2019-04-05T04:43:52.303Z,21.20
2019-04-05T04:46:21.759Z,19.45
2019-04-05T04:48:51.551Z,18.65
2019-04-05T04:51:21.524Z,20.17
2019-04-05T04:53:51.007Z,20.52
2019-04-05T04:56:20.332Z,18.77
2019-04-05T04:58:50.118Z,18.42
2019-04-05T05:01:20.016Z,18.62
2019-04-05T05:03:49.511Z,19.32
2019-04-05T05:06:19.080Z,20.77
2019-04-05T05:08:48.762Z,20.35
2019-04-05T05:11:18.631Z,19.77
2019-04-05T05:13:48.213Z,18.70
2019-04-05T05:16:17.681Z,18.67
2019-04-05T05:18:47.157Z,18.95
2019-04-05T05:21:16.554Z,18.42
2019-04-05T05:23:46.033Z,19.65
2019-04-05T05:26:15.632Z,20.82
2019-04-05T05:28:45.040Z,20.40
2019-04-05T05:31:14.445Z,21.07
2019-04-05T05:33:44.093Z,21.77
2019-04-05T05:36:13.490Z,21.70
2019-04-05T05:38:43.175Z,21.07
2019-04-05T05:41:13.641Z,20.60
2019-04-05T05:43:43.114Z,21.70
2019-04-05T05:46:12.588Z,20.05
2019-04-05T05:48:42.916Z,21.12
2019-04-05T05:51:13.149Z,20.25
2019-04-05T05:53:42.546Z,22.27
2019-04-05T05:56:11.874Z,21.33
2019-04-05T05:58:41.298Z,21.42
2019-04-05T06:01:10.623Z,20.52
2019-04-05T06:03:39.946Z,21.93
2019-04-05T06:06:09.301Z,21.75
2019-04-05T06:08:38.627Z,21.35
2019-04-05T06:11:07.973Z,20.77
2019-04-05T06:13:37.309Z,21.52
2019-04-05T06:16:06.658Z,21.12
2019-04-05T06:18:35.987Z,21.02
2019-04-05T06:21:05.403Z,21.00
2019-04-05T06:23:35.048Z,19.30
2019-04-05T06:26:04.409Z,21.48
2019-04-05T06:28:34.084Z,20.40
2019-04-05T06:31:03.480Z,20.37
2019-04-05T06:33:35.728Z,22.65
2019-04-05T06:36:03.922Z,21.30
2019-04-05T06:38:33.260Z,21.17
2019-04-05T06:41:02.591Z,22.20
2019-04-05T06:43:31.927Z,20.82
2019-04-05T06:46:01.714Z,21.80
2019-04-05T06:48:31.175Z,21.57
2019-04-05T06:51:00.522Z,22.37
2019-04-05T06:53:29.857Z,23.52
2019-04-05T06:55:59.986Z,23.27
2019-04-05T06:58:29.827Z,22.93
2019-04-05T07:00:59.576Z,22.95
2019-04-05T07:03:28.909Z,24.27
2019-04-05T07:05:58.335Z,23.25
2019-04-05T07:08:27.659Z,21.87
2019-04-05T07:10:57.015Z,22.15
2019-04-05T07:13:27.579Z,21.65
2019-04-05T07:15:57.188Z,23.15
2019-04-05T07:18:34.291Z,22.62
2019-04-05T07:20:57.981Z,21.23
2019-04-05T07:23:27.559Z,19.87
2019-04-05T07:25:56.916Z,21.25
2019-04-05T07:28:26.258Z,22.32
2019-04-05T07:30:55.611Z,22.85
2019-04-05T07:33:24.946Z,22.50
2019-04-05T07:35:54.287Z,20.43
2019-04-05T07:38:23.633Z,21.37
2019-04-05T07:40:52.971Z,19.95
2019-04-05T07:43:22.309Z,21.30
2019-04-05T07:45:51.665Z,20.45
2019-04-05T07:48:20.995Z,21.40
2019-04-05T07:50:50.354Z,22.48
2019-04-05T07:53:19.718Z,22.15
2019-04-05T07:55:49.069Z,21.17
2019-04-05T07:58:18.411Z,20.92
2019-04-05T08:00:51.167Z,22.13
2019-04-05T08:03:21.928Z,22.70
2019-04-05T08:05:52.823Z,20.23
2019-04-05T08:08:40.143Z,20.55
2019-04-05T08:11:09.560Z,22.70
2019-04-05T08:13:41.014Z,23.90
2019-04-05T08:16:10.364Z,22.25
2019-04-05T08:18:39.698Z,21.93
2019-04-05T08:21:09.063Z,21.33
2019-04-05T08:23:38.397Z,21.02
2019-04-05T08:26:07.964Z,21.00
2019-04-05T08:28:37.311Z,21.95
2019-04-05T08:31:10.563Z,22.60
2019-04-05T08:33:37.682Z,23.10
2019-04-05T08:36:07.017Z,20.05
2019-04-05T08:38:39.429Z,21.68
2019-04-05T08:41:07.462Z,21.97
2019-04-05T08:43:36.901Z,21.07
2019-04-05T08:46:06.403Z,21.10
2019-04-05T08:48:35.753Z,21.90
2019-04-05T08:51:05.458Z,22.27
2019-04-05T08:53:34.950Z,20.72
2019-04-05T08:56:04.351Z,21.30
2019-04-05T08:58:33.896Z,21.33
2019-04-05T09:01:03.459Z,21.50
2019-04-05T09:03:32.805Z,21.82
2019-04-05T09:06:02.225Z,21.25
2019-04-05T09:08:31.651Z,22.32
2019-04-05T09:11:00.981Z,20.05
2019-04-05T09:13:30.324Z,20.43
2019-04-05T09:15:59.752Z,19.37
2019-04-05T09:18:29.164Z,21.02
2019-04-05T09:20:58.496Z,19.98
2019-04-05T09:23:27.921Z,21.77
2019-04-05T09:25:57.247Z,21.12
2019-04-05T09:28:26.596Z,21.05
2019-04-05T09:30:55.932Z,21.80
2019-04-05T09:33:25.348Z,19.40
2019-04-05T09:35:54.691Z,19.92
2019-04-05T09:38:24.040Z,17.37
2019-04-05T09:40:53.377Z,17.12
2019-04-05T09:43:22.732Z,16.30
2019-04-05T09:45:52.089Z,15.72
2019-04-05T09:48:21.487Z,16.05
2019-04-05T09:50:50.818Z,14.93
2019-04-05T09:53:20.233Z,14.93
2019-04-05T09:55:49.563Z,14.23
2019-04-05T09:58:18.906Z,12.75
2019-04-05T10:00:48.571Z,13.32
2019-04-05T10:03:17.985Z,13.40
2019-04-05T10:05:47.324Z,14.60
2019-04-05T10:08:16.749Z,13.62
2019-04-05T10:10:46.091Z,12.37
2019-04-05T10:13:15.523Z,14.30
2019-04-05T10:15:44.847Z,14.18
2019-04-05T10:18:14.204Z,14.10
2019-04-05T10:20:43.549Z,14.07
2019-04-05T10:23:12.886Z,14.55
2019-04-05T10:25:44.016Z,13.25
2019-04-05T10:28:13.258Z,14.30
2019-04-05T10:30:42.613Z,13.30
2019-04-05T10:33:11.947Z,13.03
2019-04-05T10:35:41.296Z,13.32
2019-04-05T10:41:13.275Z,14.25
2019-04-05T10:43:43.690Z,14.55
2019-04-05T10:46:13.030Z,15.08
2019-04-05T10:48:42.365Z,13.62
2019-04-05T10:51:11.702Z,13.58
2019-04-05T10:53:41.347Z,14.00
2019-04-05T10:56:10.702Z,13.05
2019-04-05T10:58:40.097Z,13.62
2019-04-05T11:01:09.449Z,13.75
2019-04-05T11:03:38.775Z,13.32
2019-04-05T11:06:08.113Z,13.35
2019-04-05T11:08:37.436Z,12.28
2019-04-05T11:11:06.781Z,13.25
2019-04-05T11:13:36.117Z,11.12
2019-04-05T11:16:05.518Z,11.88
2019-04-05T11:18:34.855Z,11.35
2019-04-05T11:21:05.343Z,10.85
2019-04-05T11:23:34.667Z,9.80
2019-04-05T11:26:04.081Z,10.53
2019-04-05T11:28:33.406Z,11.48
2019-04-05T11:31:02.763Z,11.50
2019-04-05T11:33:32.234Z,10.08
2019-04-05T11:36:01.645Z,10.03
2019-04-05T11:38:31.048Z,10.63
2019-04-05T11:41:00.800Z,9.93
2019-04-05T11:43:33.428Z,10.82
2019-04-05T11:46:02.843Z,11.43
2019-04-05T11:48:33.012Z,11.40
2019-04-05T11:51:02.366Z,10.93
2019-04-05T11:56:53.896Z,11.28
2019-04-05T12:01:59.430Z,11.70
2019-04-05T12:04:28.920Z,12.00
2019-04-05T12:06:58.295Z,10.72
2019-04-05T12:09:27.627Z,11.88
2019-04-05T12:11:57.004Z,11.33
2019-04-05T12:14:30.377Z,11.28
2019-04-05T12:16:57.416Z,10.70
2019-04-05T12:19:26.777Z,11.53
2019-04-05T12:21:56.151Z,11.48
2019-04-05T12:24:25.563Z,11.20
2019-04-05T12:26:54.956Z,12.28
2019-04-05T12:29:24.367Z,11.70
2019-04-05T12:31:54.174Z,11.70
2019-04-05T12:34:23.498Z,12.15
2019-04-05T12:36:53.290Z,11.38
2019-04-05T12:39:22.740Z,11.93
2019-04-05T12:41:52.079Z,12.43
2019-04-05T12:44:21.406Z,12.18
2019-04-05T12:46:50.750Z,12.35
2019-04-05T12:49:20.083Z,12.50
2019-04-05T12:51:49.497Z,12.10
2019-04-05T12:54:18.904Z,12.68
2019-04-05T12:56:48.612Z,13.20
2019-04-05T12:59:17.940Z,13.78
2019-04-05T13:01:47.255Z,12.70
2019-04-05T13:04:16.668Z,12.53
2019-04-05T13:06:47.630Z,13.30
2019-04-05T13:09:17.054Z,12.13
2019-04-05T13:11:46.430Z,12.47
2019-04-05T13:14:15.784Z,12.53
2019-04-05T13:16:45.176Z,13.72
2019-04-05T13:19:14.512Z,12.78
2019-04-05T13:21:43.838Z,13.83
2019-04-05T13:24:13.191Z,13.22
2019-04-05T13:26:42.809Z,12.90
2019-04-05T13:29:12.340Z,13.30
2019-04-05T13:31:41.662Z,12.45
2019-04-05T13:34:11.007Z,13.10
2019-04-05T13:36:40.322Z,14.03
2019-04-05T13:39:09.749Z,12.60
2019-04-05T13:41:39.074Z,14.35
2019-04-05T13:44:09.275Z,12.28
2019-04-05T13:46:39.535Z,12.98
2019-04-05T13:49:10.545Z,12.85
2019-04-05T13:51:42.132Z,13.15
2019-04-05T13:54:12.233Z,12.20
2019-04-05T13:56:41.915Z,11.93
2019-04-05T13:59:11.294Z,12.37
2019-04-05T14:01:40.629Z,11.90
2019-04-05T14:04:10.936Z,12.05
2019-04-05T14:06:40.545Z,12.60
2019-04-05T14:09:10.452Z,12.65
2019-04-05T14:11:40.291Z,12.60
2019-04-05T14:14:09.729Z,12.28
2019-04-05T14:16:42.882Z,12.18
2019-04-05T14:19:11.682Z,12.33
2019-04-05T14:21:47.338Z,12.58
2019-04-05T14:24:12.060Z,13.15
2019-04-05T14:26:43.480Z,12.93
2019-04-05T14:29:12.409Z,12.70
2019-04-05T14:31:41.766Z,13.08
2019-04-05T14:34:11.187Z,12.78
2019-04-05T14:36:40.902Z,12.07
2019-04-05T14:39:11.478Z,13.35
2019-04-05T14:41:40.866Z,13.38
2019-04-05T14:44:10.213Z,13.10
2019-04-05T14:46:39.649Z,12.50
2019-04-05T14:49:09.021Z,12.35
2019-04-05T14:51:38.345Z,12.30
2019-04-05T14:54:09.884Z,12.98
2019-04-05T14:56:38.792Z,12.47
2019-04-05T14:59:08.132Z,11.83
2019-04-05T15:01:38.528Z,11.53
2019-04-05T15:04:07.954Z,11.93
2019-04-05T15:06:37.272Z,12.23
2019-04-05T15:09:07.094Z,11.20
2019-04-05T15:11:36.502Z,11.57
2019-04-05T15:14:05.910Z,11.33
2019-04-05T15:16:35.238Z,12.03
2019-04-05T15:19:04.650Z,11.43
2019-04-05T15:21:34.869Z,11.50
2019-04-05T15:24:04.550Z,11.70
2019-04-05T15:26:33.875Z,11.53
2019-04-05T15:29:03.216Z,11.25
2019-04-05T15:31:33.703Z,11.28
2019-04-05T15:34:03.031Z,10.53
2019-04-05T15:36:32.372Z,11.10
2019-04-05T15:56:35.431Z,10.70
2019-04-05T15:59:05.051Z,11.45
2019-04-05T16:01:34.950Z,10.75
2019-04-05T16:04:04.568Z,10.43
2019-04-05T16:06:33.975Z,10.18
2019-04-05T16:09:04.245Z,10.55
2019-04-05T16:11:33.920Z,11.08
2019-04-05T16:14:03.247Z,10.63
2019-04-05T16:16:32.592Z,10.00
2019-04-05T16:19:02.988Z,10.18
2019-04-05T16:21:32.340Z,10.55
2019-04-05T16:24:01.680Z,11.18
2019-04-05T16:26:31.017Z,10.15
2019-04-05T16:29:00.427Z,10.43
2019-04-05T16:31:29.846Z,11.12
2019-04-05T16:33:59.170Z,11.25
2019-04-05T16:36:30.860Z,10.95
2019-04-05T16:38:59.550Z,10.75
2019-04-05T16:41:28.902Z,10.70
2019-04-05T16:43:58.223Z,11.03
2019-04-05T16:46:27.574Z,11.22
2019-04-05T16:48:56.902Z,10.82
2019-04-05T16:51:26.246Z,10.85
2019-04-05T16:54:02.458Z,11.65
2019-04-05T16:56:32.010Z,11.18
2019-04-05T16:59:01.403Z,11.80
2019-04-05T17:01:30.835Z,11.65
2019-04-05T17:04:00.150Z,11.97
2019-04-05T17:06:29.496Z,11.48
2019-04-05T17:08:59.913Z,11.10
2019-04-05T17:11:29.237Z,11.22
2019-04-05T17:13:59.540Z,11.68
2019-04-05T17:16:29.091Z,12.05
2019-04-05T17:18:58.439Z,12.63
2019-04-05T17:21:27.770Z,12.78
2019-04-05T17:23:57.114Z,12.80
2019-04-05T17:26:26.461Z,12.37
2019-04-05T17:28:55.801Z,12.00
2019-04-05T17:31:25.141Z,12.13
2019-04-05T17:33:54.477Z,12.93
2019-04-05T17:36:23.815Z,15.98
2019-04-05T17:38:53.167Z,14.20
2019-04-05T17:41:22.484Z,13.83
2019-04-05T17:43:51.828Z,13.20
2019-04-05T17:46:21.150Z,12.35
2019-04-05T17:48:51.853Z,12.47
2019-04-05T17:51:21.394Z,12.53
2019-04-05T17:53:50.817Z,12.58
2019-04-05T17:56:20.694Z,12.95
2019-04-05T17:58:50.375Z,12.82
2019-04-05T18:01:19.706Z,12.95
2019-04-05T18:03:49.119Z,12.85
2019-04-05T18:06:18.448Z,15.90
2019-04-05T18:08:47.786Z,13.40
2019-04-05T18:11:17.113Z,13.50
2019-04-05T18:13:46.852Z,12.80
2019-04-05T18:16:16.187Z,13.22
2019-04-05T18:18:45.526Z,16.25
2019-04-05T18:21:14.851Z,14.47
2019-04-05T18:23:44.190Z,14.70
2019-04-05T18:26:13.527Z,14.07
2019-04-05T18:28:42.871Z,14.85
2019-04-05T18:31:12.201Z,14.58
2019-04-05T18:33:41.545Z,13.78
2019-04-05T18:36:10.869Z,14.85
2019-04-05T18:38:40.213Z,15.10
2019-04-05T18:41:09.553Z,14.78
2019-04-05T18:43:38.895Z,14.63
2019-04-05T18:46:08.221Z,15.95
2019-04-05T18:48:37.563Z,14.43
2019-04-05T18:51:06.887Z,15.28
2019-04-05T18:53:37.789Z,15.72
2019-04-05T18:56:07.303Z,19.92
2019-04-05T18:58:36.629Z,18.95
2019-04-05T19:01:05.966Z,17.02
2019-04-05T19:03:35.306Z,20.08
2019-04-05T19:06:04.793Z,18.25
2019-04-05T19:08:39.721Z,16.73
2019-04-05T19:11:05.303Z,17.02
2019-04-05T19:13:34.625Z,15.70
2019-04-05T19:16:03.970Z,15.98
2019-04-05T19:18:34.405Z,15.93
2019-04-05T19:21:04.165Z,16.35
2019-04-05T19:23:33.508Z,17.17
2019-04-05T19:26:02.857Z,18.15
2019-04-05T19:28:32.186Z,16.90
2019-04-05T19:48:39.164Z,18.17
2019-04-05T19:51:08.506Z,16.55
2019-04-05T19:53:37.839Z,16.15
2019-04-05T19:56:07.187Z,16.37
2019-04-05T19:58:36.775Z,17.32
2019-04-05T20:01:06.118Z,17.52
2019-04-05T20:03:35.450Z,17.20
2019-04-05T20:06:04.942Z,15.85
2019-04-05T20:08:34.272Z,17.00
2019-04-05T20:11:03.655Z,15.68
2019-04-05T20:13:33.029Z,17.00
2019-04-05T20:16:02.420Z,16.80
2019-04-05T20:18:31.875Z,17.48
2019-04-05T20:21:01.223Z,16.37
2019-04-05T20:23:30.605Z,16.02
2019-04-05T20:25:59.947Z,16.00
2019-04-05T20:28:29.269Z,16.30
2019-04-05T20:30:58.622Z,15.55
2019-04-05T20:33:27.950Z,16.37
2019-04-05T20:35:57.290Z,15.68
2019-04-05T20:38:27.690Z,16.80
2019-04-05T20:40:57.036Z,16.50
2019-04-05T20:43:26.390Z,17.37
2019-04-05T20:45:55.734Z,17.40
2019-04-05T20:48:25.101Z,17.60
2019-04-05T20:50:54.497Z,16.73
2019-04-05T20:53:23.821Z,17.90
2019-04-05T20:55:53.181Z,17.40
2019-04-05T20:58:23.478Z,18.60
2019-04-05T21:00:52.890Z,17.67
2019-04-05T21:03:22.239Z,17.55
2019-04-05T21:05:51.566Z,19.73
2019-04-05T21:08:20.910Z,18.95
2019-04-05T21:10:50.241Z,18.35
2019-04-05T21:13:19.585Z,20.12
2019-04-05T21:15:48.926Z,19.20
2019-04-05T21:18:18.602Z,17.70
2019-04-05T21:20:47.930Z,17.55
2019-04-05T21:23:17.274Z,17.00
2019-04-05T21:25:46.602Z,16.55
2019-04-05T21:28:15.950Z,20.37
2019-04-05T21:30:45.274Z,20.12
2019-04-05T21:33:14.618Z,19.57
2019-04-05T21:35:45.955Z,18.80
2019-04-05T21:38:14.994Z,21.87
2019-04-05T21:40:44.324Z,19.25
2019-04-05T21:43:13.669Z,18.10
2019-04-05T21:45:43.015Z,20.00
2019-04-05T21:48:13.329Z,17.95
2019-04-05T21:50:42.657Z,18.62
2019-04-05T21:53:11.999Z,19.37
2019-04-05T21:55:41.331Z,18.75
2019-04-05T21:58:10.719Z,18.80
2019-04-05T22:00:41.949Z,19.82
2019-04-05T22:03:12.813Z,18.87
2019-04-05T22:05:43.100Z,19.85
2019-04-05T22:08:12.466Z,20.75
2019-04-05T22:10:41.799Z,20.23
2019-04-05T22:13:11.138Z,19.77
2019-04-05T22:15:40.488Z,19.82
2019-04-05T22:18:09.887Z,19.70
2019-04-05T22:20:39.222Z,19.27
2019-04-05T22:23:08.601Z,21.37
2019-04-05T22:25:37.926Z,18.40
2019-04-05T22:28:07.286Z,20.15
2019-04-05T22:30:36.758Z,21.07
2019-04-05T22:33:06.165Z,19.17
2019-04-05T22:35:35.495Z,20.30
2019-04-05T22:38:04.846Z,20.60
2019-04-05T22:40:34.169Z,19.77
2019-04-05T22:43:03.548Z,21.25
2019-04-05T22:45:32.936Z,21.37
2019-04-05T22:48:02.283Z,20.12
2019-04-05T22:50:31.612Z,20.27
2019-04-05T22:53:02.600Z,21.15
2019-04-05T22:55:31.923Z,21.57
2019-04-05T22:58:01.270Z,20.60
2019-04-05T23:00:30.622Z,21.12
2019-04-05T23:02:59.958Z,20.08
2019-04-05T23:05:29.291Z,21.20
2019-04-05T23:07:58.642Z,21.95
2019-04-05T23:10:28.041Z,21.35
2019-04-05T23:12:57.425Z,22.50
2019-04-05T23:15:26.757Z,21.60
2019-04-05T23:17:56.180Z,22.87
2019-04-05T23:20:25.501Z,22.67
2019-04-05T23:22:54.872Z,22.40
2019-04-05T23:25:24.260Z,21.17
2019-04-05T23:27:53.619Z,21.45
2019-04-05T23:30:24.198Z,21.68
2019-04-05T23:32:53.549Z,22.60
2019-04-05T23:35:22.969Z,21.27
2019-04-05T23:37:52.313Z,23.12
2019-04-05T23:40:21.885Z,21.77
2019-04-05T23:42:51.216Z,22.05
2019-04-05T23:45:20.565Z,21.70
2019-04-05T23:47:49.898Z,20.37
2019-04-05T23:50:19.242Z,22.30
2019-04-05T23:52:48.567Z,23.40
2019-04-05T23:55:18.005Z,20.30
2019-04-05T23:57:47.333Z,23.32
